createdAt,value
2023-04-06T00:00:52.461Z,90.31
2023-04-06T00:03:21.376Z,92.93
2023-04-06T00:05:50.737Z,91.45
2023-04-06T00:08:19.350Z,93.11
2023-04-06T00:10:47.678Z,92.80
2023-04-06T00:13:16.241Z,94.03
2023-04-06T00:15:44.572Z,96.20
2023-04-06T00:18:14.337Z,97.67
2023-04-06T00:20:42.755Z,97.32
2023-04-06T00:23:11.334Z,98.27
2023-04-06T00:25:39.677Z,98.05
2023-04-06T00:28:08.059Z,98.18
2023-04-06T00:30:36.402Z,98.75
2023-04-06T00:33:05.000Z,99.41
2023-04-06T00:35:34.894Z,100.00
2023-04-06T00:38:03.486Z,100.00
2023-04-06T00:40:32.164Z,100.00
2023-04-06T00:43:00.789Z,100.00
2023-04-06T00:45:30.543Z,100.00
2023-04-06T00:47:59.826Z,100.00
2023-04-06T00:50:28.618Z,100.00
2023-04-06T00:52:58.733Z,100.00
2023-04-06T00:55:29.484Z,100.00
2023-04-06T00:58:01.751Z,100.00
2023-04-06T01:00:34.449Z,100.00
2023-04-06T01:03:06.957Z,100.00
2023-04-06T01:05:42.045Z,100.00
2023-04-06T01:08:20.035Z,100.00
2023-04-06T01:10:48.846Z,100.00
2023-04-06T01:13:29.968Z,100.00
2023-04-06T01:16:03.243Z,100.00
2023-04-06T01:18:48.400Z,100.00
2023-04-06T01:21:31.085Z,100.00
2023-04-06T01:24:15.990Z,100.00
2023-04-06T01:26:58.551Z,100.00
2023-04-06T01:29:30.968Z,100.00
2023-04-06T01:32:01.054Z,100.00
2023-04-06T01:34:31.266Z,100.00
2023-04-06T01:37:04.420Z,100.00
2023-04-06T01:39:35.008Z,100.00
2023-04-06T01:42:06.378Z,100.00
2023-04-06T01:44:38.129Z,100.00
2023-04-06T01:47:11.708Z,100.00
2023-04-06T01:49:40.624Z,100.00
2023-04-06T01:52:09.945Z,100.00
2023-04-06T01:54:43.240Z,100.00
2023-04-06T01:57:16.573Z,100.00
2023-04-06T02:00:10.048Z,100.00
2023-04-06T02:02:50.451Z,100.00
2023-04-06T02:05:23.983Z,100.00
2023-04-06T02:07:54.202Z,100.00
2023-04-06T02:10:32.279Z,100.00
2023-04-06T02:13:04.624Z,100.00
2023-04-06T02:15:33.680Z,100.00
2023-04-06T02:18:02.257Z,100.00
2023-04-06T02:20:30.892Z,100.00
2023-04-06T02:23:01.076Z,100.00
2023-04-06T02:25:29.876Z,100.00
2023-04-06T02:27:59.595Z,100.00
2023-04-06T02:30:33.681Z,100.00
2023-04-06T02:33:02.918Z,100.00
2023-04-06T02:35:37.736Z,100.00
2023-04-06T02:38:06.549Z,100.00
2023-04-06T02:40:34.923Z,100.00
2023-04-06T02:43:14.952Z,100.00
2023-04-06T02:45:43.618Z,100.00
2023-04-06T02:48:13.299Z,100.00
2023-04-06T02:50:42.106Z,100.00
2023-04-06T02:53:10.621Z,100.00
2023-04-06T02:55:41.030Z,100.00
2023-04-06T02:58:09.880Z,100.00
2023-04-06T03:00:49.958Z,100.00
2023-04-06T03:03:18.568Z,100.00
2023-04-06T03:05:48.661Z,100.00
2023-04-06T03:08:20.069Z,100.00
2023-04-06T03:10:48.587Z,100.00
2023-04-06T03:13:19.113Z,100.00
2023-04-06T03:15:52.491Z,100.00
2023-04-06T03:18:25.436Z,100.00
2023-04-06T03:20:55.983Z,100.00
2023-04-06T03:23:29.727Z,100.00
2023-04-06T03:26:01.574Z,100.00
2023-04-06T03:28:29.905Z,100.00
2023-04-06T03:31:03.048Z,100.00
2023-04-06T03:33:50.166Z,100.00
2023-04-06T03:36:24.479Z,100.00
2023-04-06T03:38:54.491Z,100.00
2023-04-06T03:41:23.099Z,100.00
2023-04-06T03:44:01.885Z,100.00
2023-04-06T03:46:31.828Z,100.00
2023-04-06T03:49:01.597Z,100.00
2023-04-06T03:51:30.991Z,100.00
2023-04-06T03:53:59.681Z,100.00
2023-04-06T03:56:28.025Z,100.00
2023-04-06T03:58:56.454Z,100.00
2023-04-06T04:01:25.012Z,100.00
2023-04-06T04:03:55.499Z,100.00
2023-04-06T04:06:24.311Z,100.00
2023-04-06T04:08:52.718Z,100.00
2023-04-06T04:11:21.067Z,100.00
2023-04-06T04:13:55.726Z,100.00
2023-04-06T04:16:24.281Z,100.00
2023-04-06T04:18:55.547Z,100.00
2023-04-06T04:21:26.843Z,100.00
2023-04-06T04:23:55.582Z,100.00
2023-04-06T04:26:24.167Z,100.00
2023-04-06T04:28:52.836Z,100.00
2023-04-06T04:31:23.347Z,100.00
2023-04-06T04:33:57.764Z,100.00
2023-04-06T04:36:32.687Z,100.00
2023-04-06T04:39:04.443Z,100.00
2023-04-06T04:41:38.474Z,100.00
2023-04-06T04:44:10.380Z,100.00
2023-04-06T04:46:38.889Z,100.00
2023-04-06T04:49:10.021Z,100.00
2023-04-06T04:51:38.764Z,100.00
2023-04-06T04:54:13.924Z,100.00
2023-04-06T04:56:43.779Z,100.00
2023-04-06T04:59:22.706Z,100.00
2023-04-06T05:01:58.341Z,100.00
2023-04-06T05:04:41.186Z,100.00
2023-04-06T05:07:14.104Z,100.00
2023-04-06T05:09:43.340Z,100.00
2023-04-06T05:12:12.862Z,100.00
2023-04-06T05:14:52.073Z,100.00
2023-04-06T05:17:22.570Z,100.00
2023-04-06T05:19:53.426Z,100.00
2023-04-06T05:22:26.326Z,100.00
2023-04-06T05:25:09.774Z,100.00
2023-04-06T05:27:40.647Z,100.00
2023-04-06T05:30:19.244Z,100.00
2023-04-06T05:32:50.751Z,100.00
2023-04-06T05:35:21.275Z,100.00
2023-04-06T05:37:53.270Z,100.00
2023-04-06T05:40:25.866Z,100.00
2023-04-06T05:42:54.613Z,100.00
2023-04-06T05:45:23.090Z,100.00
2023-04-06T05:47:56.674Z,100.00
2023-04-06T05:50:30.721Z,100.00
2023-04-06T05:53:00.038Z,100.00
2023-04-06T05:55:33.495Z,100.00
2023-04-06T05:58:19.271Z,98.19
2023-04-06T06:00:49.349Z,94.89
2023-04-06T06:03:19.160Z,92.58
2023-04-06T06:05:54.537Z,89.65
2023-04-06T06:08:31.807Z,87.95
2023-04-06T06:11:04.714Z,89.02
2023-04-06T06:13:33.165Z,87.39
2023-04-06T06:16:06.155Z,85.58
2023-04-06T06:18:37.852Z,81.45
2023-04-06T06:21:08.245Z,81.15
2023-04-06T06:23:37.172Z,79.04
2023-04-06T06:26:06.022Z,78.50
2023-04-06T06:28:34.806Z,79.46
2023-04-06T06:31:03.409Z,78.75
2023-04-06T06:33:32.688Z,79.27
2023-04-06T06:36:01.788Z,77.53
2023-04-06T06:38:33.555Z,73.17
2023-04-06T06:41:02.015Z,76.55
2023-04-06T06:43:33.792Z,77.23
2023-04-06T06:46:07.039Z,73.21
2023-04-06T06:48:35.971Z,75.54
2023-04-06T06:51:04.578Z,71.29
2023-04-06T06:53:34.305Z,70.35
2023-04-06T06:56:03.026Z,76.66
2023-04-06T06:58:32.417Z,72.78
2023-04-06T07:01:02.107Z,70.93
2023-04-06T07:03:32.943Z,73.49
2023-04-06T07:06:01.953Z,72.44
2023-04-06T07:08:30.479Z,73.65
2023-04-06T07:11:00.177Z,69.55
2023-04-06T07:13:28.839Z,69.40
2023-04-06T07:15:59.599Z,67.88
2023-04-06T07:18:28.252Z,69.34
2023-04-06T07:20:57.808Z,70.60
2023-04-06T07:23:27.236Z,67.70
2023-04-06T07:25:55.763Z,68.08
2023-04-06T07:28:25.403Z,62.36
2023-04-06T07:30:55.314Z,62.73
2023-04-06T07:33:24.371Z,61.80
2023-04-06T07:35:53.582Z,62.03
2023-04-06T07:38:22.068Z,59.95
2023-04-06T07:40:50.851Z,58.41
2023-04-06T07:43:19.570Z,56.85
2023-04-06T07:45:49.567Z,56.44
2023-04-06T07:48:19.058Z,56.18
2023-04-06T07:50:51.109Z,54.99
2023-04-06T07:53:20.031Z,54.42
2023-04-06T07:55:48.933Z,49.92
2023-04-06T07:58:17.337Z,51.48
2023-04-06T08:00:45.650Z,53.99
2023-04-06T08:03:15.429Z,53.44
2023-04-06T08:05:44.555Z,57.35
2023-04-06T08:08:12.865Z,53.17
2023-04-06T08:10:41.150Z,55.85
2023-04-06T08:13:10.232Z,53.50
2023-04-06T08:15:39.035Z,50.71
2023-04-06T08:18:07.823Z,55.73
2023-04-06T08:20:38.193Z,54.27
2023-04-06T08:23:07.800Z,52.33
2023-04-06T08:25:37.863Z,55.23
2023-04-06T08:28:07.163Z,51.55
2023-04-06T08:30:35.528Z,49.38
2023-04-06T08:33:04.185Z,49.74
2023-04-06T08:35:33.085Z,48.93
2023-04-06T08:38:02.994Z,47.27
2023-04-06T08:40:31.374Z,48.06
2023-04-06T08:43:09.333Z,49.25
2023-04-06T08:45:38.133Z,47.84
2023-04-06T08:48:08.282Z,42.90
2023-04-06T08:50:40.337Z,45.42
2023-04-06T08:53:10.716Z,45.26
2023-04-06T08:55:40.960Z,41.35
2023-04-06T08:58:10.465Z,43.39
2023-04-06T09:00:42.077Z,42.80
2023-04-06T09:03:14.631Z,43.68
2023-04-06T09:05:43.446Z,45.26
2023-04-06T09:08:13.393Z,44.59
2023-04-06T09:10:43.912Z,41.37
2023-04-06T09:13:12.445Z,42.20
2023-04-06T09:15:41.142Z,43.03
2023-04-06T09:18:10.050Z,41.77
2023-04-06T09:20:38.635Z,40.37
2023-04-06T09:23:07.004Z,41.51
2023-04-06T09:25:36.780Z,41.18
2023-04-06T09:28:08.217Z,38.09
2023-04-06T09:30:37.559Z,38.10
2023-04-06T09:33:06.390Z,39.09
2023-04-06T09:35:34.856Z,39.79
2023-04-06T09:38:13.843Z,39.53
2023-04-06T09:41:00.804Z,36.23
2023-04-06T09:43:32.268Z,37.52
2023-04-06T09:46:04.842Z,39.87
2023-04-06T09:48:38.162Z,37.22
2023-04-06T09:51:09.145Z,37.02
2023-04-06T09:53:43.952Z,40.14
2023-04-06T09:56:20.217Z,36.37
2023-04-06T09:58:54.695Z,34.00
2023-04-06T10:01:25.091Z,33.11
2023-04-06T10:04:05.191Z,36.10
2023-04-06T10:06:37.287Z,33.45
2023-04-06T10:09:10.425Z,35.14
2023-04-06T10:11:40.962Z,36.05
2023-04-06T10:14:12.839Z,34.52
2023-04-06T10:16:42.025Z,36.07
2023-04-06T10:19:20.653Z,36.80
2023-04-06T10:21:56.161Z,35.57
2023-04-06T10:24:26.094Z,33.69
2023-04-06T10:27:04.802Z,32.94
2023-04-06T10:29:48.667Z,33.57
2023-04-06T10:32:17.172Z,35.47
2023-04-06T10:34:47.142Z,35.28
2023-04-06T10:37:17.518Z,32.72
2023-04-06T10:39:50.345Z,34.08
2023-04-06T10:42:25.719Z,35.70
2023-04-06T10:44:54.514Z,35.64
2023-04-06T10:47:22.836Z,30.90
2023-04-06T10:49:51.572Z,31.84
2023-04-06T10:52:20.672Z,30.90
2023-04-06T10:54:50.539Z,32.01
2023-04-06T10:57:31.827Z,35.72
2023-04-06T11:00:00.696Z,32.98
2023-04-06T11:02:29.072Z,30.14
2023-04-06T11:04:59.178Z,29.88
2023-04-06T11:07:30.169Z,29.92
2023-04-06T11:10:13.435Z,31.18
2023-04-06T11:12:47.260Z,29.71
2023-04-06T11:15:16.523Z,30.42
2023-04-06T11:17:46.832Z,32.53
2023-04-06T11:20:15.582Z,30.70
2023-04-06T11:22:54.376Z,29.10
2023-04-06T11:25:23.262Z,26.53
2023-04-06T11:27:54.046Z,29.01
2023-04-06T11:30:22.864Z,29.59
2023-04-06T11:32:51.483Z,31.21
2023-04-06T11:35:24.284Z,33.18
2023-04-06T11:37:53.822Z,29.00
2023-04-06T11:40:25.699Z,30.27
2023-04-06T11:42:58.564Z,35.00
2023-04-06T11:45:28.688Z,28.71
2023-04-06T11:48:02.424Z,30.56
2023-04-06T11:50:36.090Z,32.72
2023-04-06T11:53:05.545Z,30.77
2023-04-06T11:55:41.163Z,31.95
2023-04-06T11:58:11.087Z,31.49
2023-04-06T12:00:39.840Z,30.05
2023-04-06T12:03:08.340Z,32.12
2023-04-06T12:05:36.914Z,29.29
2023-04-06T12:08:05.569Z,27.49
2023-04-06T12:10:34.239Z,27.22
2023-04-06T12:13:02.948Z,30.43
2023-04-06T12:15:33.324Z,31.58
2023-04-06T12:18:01.927Z,34.23
2023-04-06T12:20:30.926Z,32.34
2023-04-06T12:22:59.493Z,29.33
2023-04-06T12:25:27.988Z,29.34
2023-04-06T12:27:56.969Z,30.40
2023-04-06T12:30:26.289Z,32.51
2023-04-06T12:32:56.468Z,31.59
2023-04-06T12:35:25.605Z,30.16
2023-04-06T12:37:53.940Z,31.37
2023-04-06T12:40:23.450Z,31.81
2023-04-06T12:42:51.759Z,28.56
2023-04-06T12:45:20.202Z,29.55
2023-04-06T12:47:48.897Z,29.22
2023-04-06T12:50:19.280Z,32.69
2023-04-06T12:52:47.561Z,31.06
2023-04-06T12:55:16.264Z,35.89
2023-04-06T12:57:45.320Z,29.67
2023-04-06T13:02:47.868Z,28.93
2023-04-06T13:05:19.870Z,29.31
2023-04-06T13:07:48.851Z,30.21
2023-04-06T13:10:17.387Z,30.01
2023-04-06T13:12:46.080Z,30.81
2023-04-06T13:15:14.411Z,28.72
2023-04-06T13:17:43.145Z,28.80
2023-04-06T13:20:12.454Z,28.92
2023-04-06T13:22:42.134Z,30.02
2023-04-06T13:25:11.056Z,28.79
2023-04-06T13:27:39.444Z,30.44
2023-04-06T13:30:10.404Z,31.95
2023-04-06T13:32:39.032Z,32.15
2023-04-06T13:35:09.335Z,36.00
2023-04-06T13:37:37.922Z,35.50
2023-04-06T13:40:09.859Z,34.86
2023-04-06T13:42:38.936Z,28.75
2023-04-06T13:45:08.932Z,28.59
2023-04-06T13:47:37.623Z,27.43
2023-04-06T13:50:07.683Z,28.30
2023-04-06T13:52:37.507Z,29.32
2023-04-06T13:55:08.573Z,25.59
2023-04-06T13:57:37.913Z,24.82
2023-04-06T14:00:08.365Z,25.71
2023-04-06T14:02:37.193Z,30.76
2023-04-06T14:05:06.221Z,32.06
2023-04-06T14:07:34.646Z,34.45
2023-04-06T14:10:04.030Z,31.55
2023-04-06T14:12:34.053Z,29.89
2023-04-06T14:15:05.407Z,26.36
2023-04-06T14:17:34.104Z,26.71
2023-04-06T14:20:03.396Z,26.25
2023-04-06T14:22:32.228Z,26.03
2023-04-06T14:25:00.982Z,26.31
2023-04-06T14:27:29.337Z,27.19
2023-04-06T14:30:00.868Z,29.11
2023-04-06T14:32:29.214Z,25.72
2023-04-06T14:34:57.730Z,25.88
2023-04-06T14:37:26.136Z,26.17
2023-04-06T14:39:54.723Z,27.80
2023-04-06T14:42:23.057Z,27.85
2023-04-06T14:44:51.789Z,28.87
2023-04-06T14:47:22.618Z,27.59
2023-04-06T14:49:54.323Z,25.46
2023-04-06T14:52:23.063Z,25.77
2023-04-06T14:54:51.612Z,25.92
2023-04-06T14:57:19.984Z,26.95
2023-04-06T14:59:50.977Z,26.74
2023-04-06T15:02:19.855Z,26.92
2023-04-06T15:04:49.867Z,26.17
2023-04-06T15:07:18.924Z,26.61
2023-04-06T15:09:47.638Z,25.56
2023-04-06T15:12:15.972Z,26.02
2023-04-06T15:14:44.273Z,26.29
2023-04-06T15:17:12.821Z,26.61
2023-04-06T15:19:43.298Z,27.19
2023-04-06T15:22:14.556Z,28.27
2023-04-06T15:24:43.362Z,30.15
2023-04-06T15:27:11.804Z,29.80
2023-04-06T15:29:40.427Z,33.04
2023-04-06T15:32:09.096Z,31.81
2023-04-06T15:34:37.854Z,31.92
2023-04-06T15:37:06.670Z,32.69
2023-04-06T15:39:37.875Z,31.34
2023-04-06T15:42:06.445Z,30.91
2023-04-06T15:44:35.529Z,28.44
2023-04-06T15:47:04.314Z,27.59
2023-04-06T15:49:33.325Z,28.29
2023-04-06T15:52:01.973Z,29.21
2023-04-06T15:54:30.256Z,30.22
2023-04-06T15:56:59.932Z,29.75
2023-04-06T15:59:28.207Z,29.69
2023-04-06T16:01:56.510Z,30.85
2023-04-06T16:04:24.967Z,29.93
2023-04-06T16:06:53.420Z,29.44
2023-04-06T16:09:21.747Z,29.83
2023-04-06T16:11:51.134Z,29.77
2023-04-06T16:14:20.800Z,30.42
2023-04-06T16:16:50.218Z,30.13
2023-04-06T16:19:18.655Z,29.18
2023-04-06T16:21:47.520Z,31.35
2023-04-06T16:24:15.899Z,29.87
2023-04-06T16:26:45.003Z,30.77
2023-04-06T16:29:13.431Z,30.29
2023-04-06T16:31:46.984Z,32.42
2023-04-06T16:34:16.077Z,31.42
2023-04-06T16:36:44.582Z,32.70
2023-04-06T16:39:13.551Z,32.36
2023-04-06T16:41:41.872Z,33.59
2023-04-06T16:44:11.367Z,34.19
2023-04-06T16:46:41.462Z,32.81
2023-04-06T16:49:11.472Z,34.98
2023-04-06T16:51:42.564Z,33.68
2023-04-06T16:54:11.308Z,33.82
2023-04-06T16:56:39.706Z,35.35
2023-04-06T16:59:10.443Z,35.25
2023-04-06T17:01:39.050Z,36.09
2023-04-06T17:04:07.775Z,35.83
2023-04-06T17:06:37.613Z,36.78
2023-04-06T17:09:05.966Z,36.58
2023-04-06T17:11:46.194Z,36.31
2023-04-06T17:14:16.030Z,36.49
2023-04-06T17:16:44.435Z,36.77
2023-04-06T17:19:12.739Z,37.43
2023-04-06T17:21:43.152Z,38.46
2023-04-06T17:24:12.059Z,37.56
2023-04-06T17:26:40.547Z,38.43
2023-04-06T17:29:09.006Z,38.59
2023-04-06T17:31:37.489Z,39.87
2023-04-06T17:34:06.992Z,40.01
2023-04-06T17:36:35.352Z,41.04
2023-04-06T17:39:05.662Z,42.02
2023-04-06T17:41:34.824Z,42.96
2023-04-06T17:44:04.214Z,43.71
2023-04-06T17:46:33.058Z,44.18
2023-04-06T17:49:01.498Z,47.77
2023-04-06T17:51:31.212Z,55.56
2023-04-06T17:53:59.547Z,59.16
2023-04-06T17:56:31.854Z,64.17
2023-04-06T17:59:01.344Z,68.13
2023-04-06T18:01:31.684Z,68.35
2023-04-06T18:04:00.602Z,67.48
2023-04-06T18:06:28.943Z,67.49
2023-04-06T18:08:57.423Z,66.80
2023-04-06T18:11:25.851Z,68.93
2023-04-06T18:13:56.998Z,66.51
2023-04-06T18:16:26.129Z,69.76
2023-04-06T18:18:56.371Z,68.72
2023-04-06T18:21:27.378Z,70.64
2023-04-06T18:23:56.148Z,69.24
2023-04-06T18:26:25.503Z,67.85
2023-04-06T18:28:55.998Z,67.72
2023-04-06T18:31:24.721Z,68.92
2023-04-06T18:33:54.510Z,72.84
2023-04-06T18:36:23.470Z,71.28
2023-04-06T18:38:52.121Z,70.95
2023-04-06T18:41:21.589Z,73.10
2023-04-06T18:43:50.327Z,77.29
2023-04-06T18:46:21.042Z,76.22
2023-04-06T18:48:49.614Z,77.70
2023-04-06T18:51:18.033Z,70.95
2023-04-06T18:53:46.573Z,66.75
2023-04-06T18:56:16.716Z,69.75
2023-04-06T18:58:46.335Z,71.58
2023-04-06T19:01:24.381Z,71.47
2023-04-06T19:03:53.685Z,72.37
2023-04-06T19:06:23.874Z,73.46
2023-04-06T19:08:52.404Z,72.97
2023-04-06T19:11:23.276Z,72.38
2023-04-06T19:13:51.905Z,75.25
2023-04-06T19:16:20.454Z,74.08
2023-04-06T19:18:50.377Z,75.02
2023-04-06T19:21:20.188Z,77.23
2023-04-06T19:23:50.213Z,77.35
2023-04-06T19:26:22.072Z,77.70
2023-04-06T19:28:50.919Z,78.94
2023-04-06T19:31:21.540Z,81.52
2023-04-06T19:33:52.046Z,80.14
2023-04-06T19:36:20.555Z,79.77
2023-04-06T19:38:48.920Z,79.22
2023-04-06T19:41:17.340Z,78.38
2023-04-06T19:43:46.161Z,77.32
2023-04-06T19:46:15.579Z,79.70
2023-04-06T19:48:44.656Z,78.43
2023-04-06T19:51:14.556Z,78.64
2023-04-06T19:53:43.551Z,81.47
2023-04-06T19:56:11.873Z,84.00
2023-04-06T19:58:41.347Z,83.13
2023-04-06T20:01:09.748Z,82.37
2023-04-06T20:03:38.538Z,82.32
2023-04-06T20:06:07.278Z,79.60
2023-04-06T20:08:37.111Z,78.11
2023-04-06T20:11:07.596Z,77.55
2023-04-06T20:13:36.902Z,77.60
2023-04-06T20:16:05.666Z,77.86
2023-04-06T20:18:34.270Z,77.22
2023-04-06T20:21:03.745Z,76.10
2023-04-06T20:23:34.952Z,75.90
2023-04-06T20:26:04.783Z,77.29
2023-04-06T20:28:33.855Z,79.43
2023-04-06T20:31:02.208Z,80.06
2023-04-06T20:33:30.566Z,81.63
2023-04-06T20:35:59.597Z,83.69
2023-04-06T20:38:32.846Z,84.61
2023-04-06T20:41:02.610Z,84.66
2023-04-06T20:43:32.804Z,85.55
2023-04-06T20:46:02.687Z,85.41
2023-04-06T20:48:33.672Z,85.19
2023-04-06T20:51:03.978Z,83.75
2023-04-06T20:53:32.468Z,82.17
2023-04-06T20:56:03.700Z,82.20
2023-04-06T20:58:33.478Z,84.36
2023-04-06T21:01:01.871Z,82.93
2023-04-06T21:03:30.471Z,82.91
2023-04-06T21:06:02.183Z,80.42
2023-04-06T21:08:30.882Z,78.42
2023-04-06T21:10:59.226Z,77.41
2023-04-06T21:13:27.787Z,78.59
2023-04-06T21:15:57.697Z,78.60
2023-04-06T21:18:26.215Z,79.35
2023-04-06T21:20:55.813Z,78.82
2023-04-06T21:23:24.323Z,78.73
2023-04-06T21:25:55.420Z,78.61
2023-04-06T21:28:24.304Z,79.32
2023-04-06T21:30:53.816Z,79.91
2023-04-06T21:33:23.993Z,80.47
2023-04-06T21:35:53.618Z,81.24
2023-04-06T21:38:22.155Z,80.28
2023-04-06T21:40:56.712Z,80.98
2023-04-06T21:43:25.193Z,81.46
2023-04-06T21:45:53.822Z,82.43
2023-04-06T21:48:23.653Z,82.15
2023-04-06T21:50:52.353Z,82.55
2023-04-06T21:53:21.205Z,83.68
2023-04-06T21:55:51.081Z,86.67
2023-04-06T21:58:19.578Z,88.68
2023-04-06T22:00:47.915Z,89.30
2023-04-06T22:03:16.613Z,88.79
2023-04-06T22:05:46.787Z,90.20
2023-04-06T22:08:25.539Z,89.23
2023-04-06T22:10:58.730Z,90.42
2023-04-06T22:13:28.257Z,91.38
2023-04-06T22:15:57.133Z,90.97
2023-04-06T22:18:25.804Z,91.91
2023-04-06T22:20:56.556Z,92.29
2023-04-06T22:23:25.070Z,92.55
2023-04-06T22:25:54.479Z,91.52
2023-04-06T22:28:22.815Z,93.36
2023-04-06T22:30:51.189Z,94.94
2023-04-06T22:33:19.638Z,96.23
2023-04-06T22:35:48.146Z,97.31
2023-04-06T22:38:17.865Z,93.13
2023-04-06T22:40:46.605Z,91.09
2023-04-06T22:43:14.889Z,90.47
2023-04-06T22:45:43.143Z,89.65
2023-04-06T22:48:11.969Z,90.50
2023-04-06T22:50:40.903Z,90.21
2023-04-06T22:53:09.279Z,89.87
2023-04-06T22:55:41.252Z,90.54
2023-04-06T22:58:09.640Z,90.82
2023-04-06T23:00:38.315Z,90.59
2023-04-06T23:03:06.798Z,90.59
2023-04-06T23:05:35.276Z,89.09
2023-04-06T23:08:03.671Z,89.73
2023-04-06T23:10:32.025Z,88.96
2023-04-06T23:13:01.708Z,87.97
2023-04-06T23:15:30.134Z,87.20
2023-04-06T23:17:58.518Z,87.83
2023-04-06T23:20:27.101Z,89.89
2023-04-06T23:22:56.138Z,89.85
2023-04-06T23:25:25.025Z,90.96
2023-04-06T23:27:53.660Z,92.51
2023-04-06T23:30:23.873Z,91.20
2023-04-06T23:32:52.843Z,92.30
2023-04-06T23:35:21.413Z,92.40
2023-04-06T23:37:49.746Z,92.61
2023-04-06T23:40:18.426Z,91.40
2023-04-06T23:42:46.829Z,91.04
2023-04-06T23:45:15.206Z,91.28
2023-04-06T23:47:45.953Z,91.27
2023-04-06T23:50:14.496Z,90.88
2023-04-06T23:52:42.972Z,90.47
2023-04-06T23:55:11.908Z,89.26
2023-04-06T23:57:40.545Z,92.51
